METAR Data
IDs: Format: Raw Decoded Include TAF

Data at: 1315 UTC 26 Feb 2021

LICC 261250Z 08006KT 050V110 CAVOK 18/11 Q1026